KSEF

Sebring Regional Airport

Sebring, Florida, USA
METAR KSEF 190655Z AUTO 02006KT 10SM CLR 05/M01 A3032 RMK AO2 T00451011
Observed Flight Rules
Jan-19 @ 06:55 UTC (28 minutes ago) Visual Flight Rules
Wind Visibility Clouds
20° at 6 knots 10 miles
  • Clear skies
Temperatures Readings
Current 5°C / 41°F
Dewpoint -1°C / 30°F
Humidity 66%
Altimeter 30.32" Hg
Pressure 1027 hPa
Elevation 19
METAR KSEF 190655Z AUTO 02006KT 10SM CLR 05/M01 A3032 RMK AO2 T00451011
Observed Flight Rules
Jan-19 @ 06:55 UTC
(28 minutes ago)
VFR
Wind Visibility
20° at 6 knots 10 miles
Clouds
  • Clear skies
Temperature Dewpoint
5°C / 41°F -1°C / 30°F
Humidity Altimeter Pressure
66% 30.32" Hg 1027 hPa